Time;durP1;ratioP1;P1;durP2;ratioP2;P2;SDS_P1;SDS_P2;PMS_P1;PMS_P2;Temp;Humidity;BMP_temperature;BMP_pressure;BME280_temperature;BME280_humidity;BME280_pressure;Samples;Min_cycle;Max_cycle;Signal;HPM_P1;HPM_P2
2022/06/13 00:00:02;;;;;;;8.07;4.80;;;;;;;;;;5136976;27;20954;-72
2022/06/13 00:02:30;;;;;;;10.83;3.93;;;;;;;;;;5136801;27;21003;-71
2022/06/13 00:04:57;;;;;;;6.90;4.53;;;;;;;;;;5137436;27;20493;-71
2022/06/13 00:07:24;;;;;;;7.90;4.60;;;;;;;;;;5136717;27;20526;-71
2022/06/13 00:09:51;;;;;;;9.50;4.53;;;;;;;;;;5137931;27;20522;-71
2022/06/13 00:12:20;;;;;;;7.43;4.67;;;;;;;;;;5136968;27;20548;-71
2022/06/13 00:14:47;;;;;;;9.93;4.77;;;;;;;;;;5137029;27;20462;-71
2022/06/13 00:17:14;;;;;;;9.20;5.00;;;;;;;;;;5136730;27;20453;-71
2022/06/13 00:19:42;;;;;;;8.33;4.37;;;;;;;;;;5136840;27;20442;-71
2022/06/13 00:22:09;;;;;;;6.93;4.57;;;;;;;;;;5136331;27;20471;-70
2022/06/13 00:24:37;;;;;;;12.00;4.20;;;;;;;;;;5136531;27;20440;-71
2022/06/13 00:27:05;;;;;;;11.00;4.07;;;;;;;;;;5136722;27;20493;-71
2022/06/13 00:29:33;;;;;;;10.63;4.50;;;;;;;;;;5136480;27;20446;-72
2022/06/13 00:32:01;;;;;;;14.53;5.30;;;;;;;;;;5136682;27;20522;-71
2022/06/13 00:34:28;;;;;;;9.67;4.50;;;;;;;;;;5136432;27;20441;-71
2022/06/13 00:36:55;;;;;;;9.00;4.70;;;;;;;;;;5137154;27;20526;-71
2022/06/13 00:39:22;;;;;;;7.23;4.40;;;;;;;;;;5136129;27;20520;-71
2022/06/13 00:41:50;;;;;;;11.20;5.53;;;;;;;;;;5135996;27;20558;-72
2022/06/13 00:44:20;;;;;;;11.97;4.60;;;;;;;;;;5136010;27;20484;-70
2022/06/13 00:46:50;;;;;;;7.03;5.20;;;;;;;;;;5136111;27;20466;-70
2022/06/13 00:49:20;;;;;;;7.00;4.23;;;;;;;;;;5136199;27;20498;-70
2022/06/13 00:51:48;;;;;;;10.80;4.87;;;;;;;;;;5136302;27;20478;-70
2022/06/13 00:54:17;;;;;;;5.97;4.30;;;;;;;;;;5135799;27;20522;-70
2022/06/13 00:56:47;;;;;;;9.80;4.77;;;;;;;;;;5136109;27;20437;-70
2022/06/13 00:59:16;;;;;;;9.17;5.23;;;;;;;;;;5136297;27;20438;-70
2022/06/13 01:01:44;;;;;;;10.90;5.53;;;;;;;;;;5135502;27;20994;-71
2022/06/13 01:04:12;;;;;;;11.07;4.93;;;;;;;;;;5135919;27;20519;-70
2022/06/13 01:06:42;;;;;;;12.30;5.20;;;;;;;;;;5135880;27;20439;-71
2022/06/13 01:09:12;;;;;;;10.23;5.40;;;;;;;;;;5135819;27;20514;-70
2022/06/13 01:11:39;;;;;;;11.83;5.00;;;;;;;;;;5136554;27;20438;-70
2022/06/13 01:14:22;;;;;;;12.67;5.40;;;;;;;;;;5135773;27;20488;-70
2022/06/13 01:16:55;;;;;;;12.73;5.07;;;;;;;;;;5135502;27;20461;-71
2022/06/13 01:19:41;;;;;;;6.40;5.03;;;;;;;;;;5135981;27;20530;-71
2022/06/13 01:22:20;;;;;;;10.60;5.30;;;;;;;;;;5135341;27;20501;-71
2022/06/13 01:25:05;;;;;;;15.40;5.67;;;;;;;;;;5135482;27;20616;-71
2022/06/13 01:27:47;;;;;;;7.50;4.70;;;;;;;;;;5134908;27;20506;-71
2022/06/13 01:30:38;;;;;;;9.07;5.63;;;;;;;;;;5135403;27;20499;-71
2022/06/13 01:33:10;;;;;;;9.60;5.00;;;;;;;;;;5114867;27;20457;-70
2022/06/13 01:35:48;;;;;;;8.10;4.90;;;;;;;;;;5135733;27;20818;-71
2022/06/13 01:38:21;;;;;;;6.90;5.27;;;;;;;;;;5134952;27;20964;-70
2022/06/13 01:40:54;;;;;;;13.80;6.03;;;;;;;;;;5135356;27;20510;-71
2022/06/13 01:43:24;;;;;;;9.33;5.43;;;;;;;;;;5135398;27;20459;-70
2022/06/13 01:45:57;;;;;;;13.00;5.00;;;;;;;;;;5135187;27;20438;-71
2022/06/13 01:48:30;;;;;;;8.50;4.90;;;;;;;;;;5135761;27;20792;-70
2022/06/13 01:51:01;;;;;;;12.90;6.27;;;;;;;;;;5134890;27;20513;-70
2022/06/13 01:53:31;;;;;;;6.90;4.90;;;;;;;;;;5134936;27;20435;-71
2022/06/13 01:56:01;;;;;;;13.53;6.10;;;;;;;;;;5135199;27;20529;-71
2022/06/13 01:58:34;;;;;;;12.07;5.60;;;;;;;;;;5134954;27;20475;-70
2022/06/13 02:01:03;;;;;;;14.50;5.60;;;;;;;;;;5135160;27;20460;-71
2022/06/13 02:03:33;;;;;;;10.20;5.10;;;;;;;;;;5134424;27;20517;-70
2022/06/13 02:06:03;;;;;;;11.20;5.77;;;;;;;;;;5134676;27;20892;-71
2022/06/13 02:08:32;;;;;;;8.10;4.53;;;;;;;;;;5134569;27;20481;-71
2022/06/13 02:11:00;;;;;;;11.03;5.97;;;;;;;;;;5134522;27;20520;-71
2022/06/13 02:13:30;;;;;;;8.33;5.20;;;;;;;;;;5134670;27;20442;-71
2022/06/13 02:16:00;;;;;;;10.00;4.43;;;;;;;;;;5134411;27;20513;-71
2022/06/13 02:18:29;;;;;;;10.93;6.57;;;;;;;;;;5134873;27;20538;-71
2022/06/13 02:21:00;;;;;;;9.30;5.60;;;;;;;;;;5134596;27;20522;-72
2022/06/13 02:23:30;;;;;;;10.43;6.00;;;;;;;;;;5134395;27;20958;-71
2022/06/13 02:26:01;;;;;;;8.37;5.00;;;;;;;;;;5134664;27;20434;-72
2022/06/13 02:28:30;;;;;;;9.23;5.30;;;;;;;;;;5134659;27;20523;-72
2022/06/13 02:30:59;;;;;;;10.87;5.53;;;;;;;;;;5134519;27;20450;-72
2022/06/13 02:33:29;;;;;;;6.03;4.70;;;;;;;;;;5134936;28;20466;-71
2022/06/13 02:35:58;;;;;;;11.63;5.93;;;;;;;;;;5134157;28;20533;-71
2022/06/13 02:38:30;;;;;;;8.30;5.37;;;;;;;;;;5134520;28;20481;-71
2022/06/13 02:41:00;;;;;;;10.53;5.87;;;;;;;;;;5134116;28;20903;-71
2022/06/13 02:43:30;;;;;;;6.97;5.30;;;;;;;;;;5134390;28;20577;-71
2022/06/13 02:45:59;;;;;;;9.07;5.50;;;;;;;;;;5134194;28;20953;-71
2022/06/13 02:48:29;;;;;;;12.00;5.60;;;;;;;;;;5134494;28;20439;-72
2022/06/13 02:51:00;;;;;;;11.20;5.30;;;;;;;;;;5134419;27;20465;-71
2022/06/13 02:53:34;;;;;;;8.40;5.17;;;;;;;;;;5134365;28;20441;-71
2022/06/13 02:56:08;;;;;;;7.97;5.43;;;;;;;;;;5134022;28;20524;-71
2022/06/13 02:58:38;;;;;;;13.73;6.23;;;;;;;;;;5134445;28;20538;-70
2022/06/13 03:01:09;;;;;;;12.07;5.23;;;;;;;;;;5134260;28;20513;-71
2022/06/13 03:03:43;;;;;;;7.67;5.30;;;;;;;;;;5134272;28;20577;-71
2022/06/13 03:06:16;;;;;;;15.40;5.30;;;;;;;;;;5134314;28;20424;-70
2022/06/13 03:08:55;;;;;;;10.10;6.47;;;;;;;;;;5134471;28;20513;-71
2022/06/13 03:11:40;;;;;;;13.27;6.47;;;;;;;;;;5133861;28;20495;-71
2022/06/13 03:14:11;;;;;;;12.30;6.67;;;;;;;;;;5133986;28;20458;-70
2022/06/13 03:16:41;;;;;;;7.97;5.57;;;;;;;;;;5134158;28;20537;-70
2022/06/13 03:19:10;;;;;;;10.77;5.70;;;;;;;;;;5134155;28;20679;-71
2022/06/13 03:21:39;;;;;;;8.73;6.50;;;;;;;;;;5133924;28;20430;-70
2022/06/13 03:24:13;;;;;;;8.40;6.00;;;;;;;;;;5134225;27;21006;-70
2022/06/13 03:26:44;;;;;;;10.10;6.10;;;;;;;;;;5137979;27;20426;-71
2022/06/13 03:29:14;;;;;;;8.73;5.70;;;;;;;;;;5138083;27;20421;-70
2022/06/13 03:31:44;;;;;;;13.17;6.30;;;;;;;;;;5138074;27;20529;-71
2022/06/13 03:34:14;;;;;;;12.30;5.63;;;;;;;;;;5137932;27;20425;-71
2022/06/13 03:36:42;;;;;;;9.90;5.43;;;;;;;;;;5137372;27;20911;-71
2022/06/13 03:39:13;;;;;;;10.27;5.37;;;;;;;;;;5137388;27;21024;-71
2022/06/13 03:41:44;;;;;;;12.40;5.87;;;;;;;;;;5137494;27;20423;-71
2022/06/13 03:44:14;;;;;;;7.47;5.80;;;;;;;;;;5137398;27;20436;-72
2022/06/13 03:46:43;;;;;;;10.13;5.40;;;;;;;;;;5137465;27;20532;-70
2022/06/13 03:49:14;;;;;;;15.27;5.70;;;;;;;;;;5137582;27;20461;-69
2022/06/13 03:51:43;;;;;;;11.50;5.67;;;;;;;;;;5137696;27;20455;-77
2022/06/13 03:54:13;;;;;;;7.90;5.63;;;;;;;;;;5137088;27;20474;-77
2022/06/13 03:56:43;;;;;;;16.53;6.77;;;;;;;;;;5137345;27;20797;-78
2022/06/13 03:59:12;;;;;;;10.70;6.97;;;;;;;;;;5137418;27;20436;-77
2022/06/13 04:01:41;;;;;;;11.83;7.23;;;;;;;;;;5136505;27;20866;-77
2022/06/13 04:04:16;;;;;;;13.03;7.80;;;;;;;;;;5137066;27;20475;-78
2022/06/13 04:06:43;;;;;;;12.20;7.03;;;;;;;;;;5136994;27;20421;-78
2022/06/13 04:09:14;;;;;;;14.83;6.97;;;;;;;;;;5136762;27;20524;-77
2022/06/13 04:11:48;;;;;;;15.57;7.50;;;;;;;;;;5137032;27;20835;-76
2022/06/13 04:14:19;;;;;;;11.53;7.90;;;;;;;;;;5136997;27;20517;-78
2022/06/13 04:16:49;;;;;;;13.50;5.60;;;;;;;;;;5137090;27;20966;-78
2022/06/13 04:19:29;;;;;;;15.40;7.13;;;;;;;;;;5137097;27;20790;-78
2022/06/13 04:22:00;;;;;;;11.53;6.43;;;;;;;;;;5136338;27;20437;-78
2022/06/13 04:24:34;;;;;;;10.30;5.83;;;;;;;;;;5136771;27;20528;-78
2022/06/13 04:27:06;;;;;;;13.03;6.23;;;;;;;;;;5136835;27;20516;-78
2022/06/13 04:29:37;;;;;;;9.93;6.13;;;;;;;;;;5137030;27;20546;-78
2022/06/13 04:32:07;;;;;;;7.13;5.70;;;;;;;;;;5136422;27;20521;-78
2022/06/13 04:34:36;;;;;;;12.70;6.13;;;;;;;;;;5136727;27;20440;-78
2022/06/13 04:37:05;;;;;;;10.10;5.60;;;;;;;;;;5135223;27;20473;-78
2022/06/13 04:39:35;;;;;;;9.37;6.07;;;;;;;;;;5136692;27;20438;-78
2022/06/13 04:42:04;;;;;;;8.40;6.70;;;;;;;;;;5136449;27;20457;-78
2022/06/13 04:44:33;;;;;;;9.27;5.27;;;;;;;;;;5136323;27;20435;-78
2022/06/13 04:47:01;;;;;;;8.93;5.30;;;;;;;;;;5136133;27;20513;-79
2022/06/13 04:49:31;;;;;;;13.73;5.40;;;;;;;;;;5136009;27;20807;-78
2022/06/13 04:51:59;;;;;;;10.13;4.80;;;;;;;;;;5135734;27;20439;-79
2022/06/13 04:54:30;;;;;;;7.67;4.90;;;;;;;;;;5135859;27;20446;-78
2022/06/13 04:57:00;;;;;;;8.13;4.90;;;;;;;;;;5136184;27;20968;-79
2022/06/13 04:59:29;;;;;;;8.27;4.83;;;;;;;;;;5136186;27;20526;-78
2022/06/13 05:01:58;;;;;;;7.20;5.20;;;;;;;;;;5135386;27;20811;-78
2022/06/13 05:04:26;;;;;;;7.33;4.93;;;;;;;;;;5135882;27;20478;-79
2022/06/13 05:06:56;;;;;;;5.33;4.37;;;;;;;;;;5135501;27;20470;-79
2022/06/13 05:09:24;;;;;;;6.10;4.60;;;;;;;;;;5136182;27;20872;-78
2022/06/13 05:11:54;;;;;;;9.87;4.93;;;;;;;;;;5135371;27;20537;-77
2022/06/13 05:14:24;;;;;;;12.90;4.70;;;;;;;;;;5136248;27;20480;-79
2022/06/13 05:17:09;;;;;;;7.57;4.97;;;;;;;;;;5135952;27;20542;-73
2022/06/13 05:19:41;;;;;;;8.93;5.37;;;;;;;;;;5135420;27;20517;-68
2022/06/13 05:22:14;;;;;;;8.10;4.90;;;;;;;;;;5135615;27;20510;-68
2022/06/13 05:24:49;;;;;;;8.03;5.40;;;;;;;;;;5135402;27;20418;-68
2022/06/13 05:27:16;;;;;;;11.50;6.30;;;;;;;;;;5135236;27;20510;-68
2022/06/13 05:29:45;;;;;;;9.37;4.50;;;;;;;;;;5135816;27;20471;-68
2022/06/13 05:32:14;;;;;;;6.50;4.30;;;;;;;;;;5135426;27;20442;-68
2022/06/13 05:34:43;;;;;;;9.50;4.47;;;;;;;;;;5135536;27;20525;-68
2022/06/13 05:37:11;;;;;;;7.07;5.60;;;;;;;;;;5135353;27;20509;-68
2022/06/13 05:39:38;;;;;;;13.57;5.80;;;;;;;;;;5135107;27;20466;-68
2022/06/13 05:42:06;;;;;;;9.53;5.37;;;;;;;;;;5135230;27;20463;-68
2022/06/13 05:44:33;;;;;;;7.23;5.23;;;;;;;;;;5134860;27;20586;-69
2022/06/13 05:47:01;;;;;;;8.70;5.40;;;;;;;;;;5134737;27;20440;-68
2022/06/13 05:49:29;;;;;;;9.60;5.60;;;;;;;;;;5134961;27;20569;-68
2022/06/13 05:51:56;;;;;;;10.03;6.23;;;;;;;;;;5135045;27;20462;-68
2022/06/13 05:54:24;;;;;;;12.33;5.57;;;;;;;;;;5135281;27;20920;-69
2022/06/13 05:56:51;;;;;;;8.03;5.07;;;;;;;;;;5135219;27;20440;-66
2022/06/13 05:59:18;;;;;;;7.03;4.77;;;;;;;;;;5135063;27;20529;-69
2022/06/13 06:01:45;;;;;;;7.70;4.37;;;;;;;;;;5134494;27;20454;-68
2022/06/13 06:04:14;;;;;;;7.83;5.00;;;;;;;;;;5134796;27;20515;-66
2022/06/13 06:06:41;;;;;;;8.13;4.63;;;;;;;;;;5134967;27;20530;-67
2022/06/13 06:09:08;;;;;;;10.57;5.37;;;;;;;;;;5134958;27;20489;-67
2022/06/13 06:11:36;;;;;;;9.90;5.27;;;;;;;;;;5134554;27;20535;-67
2022/06/13 06:14:03;;;;;;;8.93;5.67;;;;;;;;;;5134224;27;20438;-69
2022/06/13 06:16:30;;;;;;;11.77;6.27;;;;;;;;;;5134342;27;20526;-67
2022/06/13 06:18:58;;;;;;;8.83;5.33;;;;;;;;;;5134084;27;20479;-67
2022/06/13 06:21:26;;;;;;;6.20;5.33;;;;;;;;;;5134590;27;20864;-68
2022/06/13 06:23:53;;;;;;;9.13;6.10;;;;;;;;;;5134371;27;20496;-68
2022/06/13 06:26:22;;;;;;;9.27;5.43;;;;;;;;;;5134607;27;20450;-68
2022/06/13 06:28:50;;;;;;;8.80;6.03;;;;;;;;;;5134515;27;20444;-68
2022/06/13 06:31:18;;;;;;;7.13;5.90;;;;;;;;;;5134221;27;20446;-67
2022/06/13 06:33:45;;;;;;;9.50;5.73;;;;;;;;;;5134120;27;20473;-68
2022/06/13 06:36:15;;;;;;;18.63;7.33;;;;;;;;;;5134108;28;20438;-68
2022/06/13 06:38:45;;;;;;;8.53;5.83;;;;;;;;;;5134210;28;20436;-68
2022/06/13 06:41:13;;;;;;;8.87;6.40;;;;;;;;;;5134427;28;20472;-68
2022/06/13 06:43:40;;;;;;;13.00;6.63;;;;;;;;;;5133833;28;21019;-69
2022/06/13 06:46:08;;;;;;;10.73;5.83;;;;;;;;;;5133934;28;20470;-68
2022/06/13 06:48:36;;;;;;;9.27;6.60;;;;;;;;;;5133811;28;20536;-68
2022/06/13 06:51:06;;;;;;;12.63;6.70;;;;;;;;;;5133811;27;20466;-68
2022/06/13 06:59:53;;;;;;;10.53;6.77;;;;;;;;;;5134347;28;20530;-69
2022/06/13 07:01:54;;;;;;;7.40;6.43;;;;;;;;;;5138184;27;20401;-68
2022/06/13 07:04:21;;;;;;;11.33;8.10;;;;;;;;;;5138321;27;20558;-68
2022/06/13 07:06:49;;;;;;;11.53;6.80;;;;;;;;;;5138086;27;20540;-68
2022/06/13 07:09:16;;;;;;;10.40;6.60;;;;;;;;;;5138267;27;20438;-68
2022/06/13 07:11:57;;;;;;;8.13;6.37;;;;;;;;;;5138297;27;20446;-69
2022/06/13 07:14:25;;;;;;;8.50;6.33;;;;;;;;;;5138157;27;20785;-68
2022/06/13 07:16:53;;;;;;;8.83;6.20;;;;;;;;;;5138579;27;20432;-68
2022/06/13 07:19:20;;;;;;;10.60;6.87;;;;;;;;;;5137543;27;20465;-68
2022/06/13 07:21:48;;;;;;;17.57;8.00;;;;;;;;;;5138254;27;20489;-69
2022/06/13 07:24:15;;;;;;;12.43;6.80;;;;;;;;;;5137979;27;20896;-68
2022/06/13 07:26:42;;;;;;;13.33;6.90;;;;;;;;;;5137887;27;20434;-68
2022/06/13 07:29:11;;;;;;;12.50;7.10;;;;;;;;;;5137733;27;20491;-68
2022/06/13 07:31:40;;;;;;;10.83;7.20;;;;;;;;;;5137474;27;20481;-68
2022/06/13 07:34:08;;;;;;;15.17;7.30;;;;;;;;;;5137370;27;20452;-68
2022/06/13 07:36:36;;;;;;;21.60;8.43;;;;;;;;;;5137713;27;20524;-68
2022/06/13 07:39:03;;;;;;;12.07;7.90;;;;;;;;;;5137164;27;20522;-68
2022/06/13 07:41:30;;;;;;;9.87;6.90;;;;;;;;;;5137969;27;20519;-68
2022/06/13 07:43:58;;;;;;;11.17;7.73;;;;;;;;;;5137458;27;20561;-68
2022/06/13 07:46:27;;;;;;;13.43;8.33;;;;;;;;;;5137255;27;20935;-69
2022/06/13 07:48:55;;;;;;;16.37;8.57;;;;;;;;;;5137658;27;20538;-68
2022/06/13 07:51:23;;;;;;;14.60;7.70;;;;;;;;;;5137100;27;20466;-68
2022/06/13 07:53:50;;;;;;;15.60;8.33;;;;;;;;;;5137428;27;20446;-68
2022/06/13 07:56:19;;;;;;;19.03;8.13;;;;;;;;;;5137019;27;20526;-70
2022/06/13 07:58:47;;;;;;;14.47;8.53;;;;;;;;;;5137278;27;20438;-68
2022/06/13 08:01:16;;;;;;;10.73;7.40;;;;;;;;;;5137256;27;20442;-68
2022/06/13 08:03:44;;;;;;;17.07;7.10;;;;;;;;;;5137112;27;20509;-68
2022/06/13 08:06:12;;;;;;;15.23;7.53;;;;;;;;;;5137151;27;20530;-68
2022/06/13 08:08:40;;;;;;;10.63;6.70;;;;;;;;;;5136925;27;20549;-68
2022/06/13 08:11:08;;;;;;;12.03;7.63;;;;;;;;;;5136393;27;20482;-68
2022/06/13 08:13:36;;;;;;;15.90;8.23;;;;;;;;;;5137003;27;20876;-68
2022/06/13 08:16:03;;;;;;;14.00;7.77;;;;;;;;;;5136752;27;20522;-68
2022/06/13 08:18:31;;;;;;;7.90;5.93;;;;;;;;;;5136526;27;20491;-68
2022/06/13 08:20:59;;;;;;;9.93;7.50;;;;;;;;;;5136897;27;20793;-68
2022/06/13 08:23:27;;;;;;;10.90;5.53;;;;;;;;;;5136793;27;20439;-68
2022/06/13 08:25:54;;;;;;;8.93;6.53;;;;;;;;;;5136680;27;20448;-68
2022/06/13 08:28:21;;;;;;;14.10;5.80;;;;;;;;;;5136820;27;20998;-68
2022/06/13 08:30:49;;;;;;;13.73;6.40;;;;;;;;;;5136651;27;20439;-68
2022/06/13 08:33:17;;;;;;;7.67;5.10;;;;;;;;;;5136599;27;20807;-68
2022/06/13 08:35:45;;;;;;;8.70;4.70;;;;;;;;;;5136201;27;20532;-67
2022/06/13 08:38:14;;;;;;;14.00;4.83;;;;;;;;;;5136544;27;20439;-68
2022/06/13 08:40:44;;;;;;;11.10;4.53;;;;;;;;;;5136628;27;20865;-69
2022/06/13 08:43:28;;;;;;;8.97;4.57;;;;;;;;;;5136220;27;20432;-68
2022/06/13 08:45:59;;;;;;;9.60;3.60;;;;;;;;;;5136450;27;20505;-68
2022/06/13 08:48:31;;;;;;;10.03;4.23;;;;;;;;;;5136164;27;20518;-68
2022/06/13 08:51:02;;;;;;;5.33;3.90;;;;;;;;;;5136301;27;20468;-68
2022/06/13 08:53:36;;;;;;;9.07;5.03;;;;;;;;;;5136387;27;20427;-68
2022/06/13 08:56:06;;;;;;;8.23;3.70;;;;;;;;;;5136137;27;20432;-68
2022/06/13 08:58:36;;;;;;;9.07;4.83;;;;;;;;;;5136469;27;20511;-67
2022/06/13 09:01:07;;;;;;;8.13;3.03;;;;;;;;;;5135734;27;20430;-68
2022/06/13 09:03:36;;;;;;;15.00;3.97;;;;;;;;;;5136102;27;20506;-68
2022/06/13 09:06:06;;;;;;;6.73;3.73;;;;;;;;;;5136099;27;20432;-68
2022/06/13 09:08:39;;;;;;;8.17;3.90;;;;;;;;;;5136243;27;20440;-68
2022/06/13 09:11:09;;;;;;;7.50;4.27;;;;;;;;;;5136138;27;20512;-68
2022/06/13 09:13:39;;;;;;;5.40;4.03;;;;;;;;;;5136425;27;20443;-68
2022/06/13 09:16:08;;;;;;;11.87;4.53;;;;;;;;;;5135803;27;20525;-68
2022/06/13 09:18:39;;;;;;;10.77;3.90;;;;;;;;;;5135674;27;20444;-68
2022/06/13 09:21:10;;;;;;;3.97;3.30;;;;;;;;;;5135477;27;20470;-68
2022/06/13 09:23:41;;;;;;;7.27;3.70;;;;;;;;;;5135214;27;20525;-68
2022/06/13 09:26:11;;;;;;;14.63;3.90;;;;;;;;;;5135283;27;20513;-69
2022/06/13 09:28:43;;;;;;;13.57;4.03;;;;;;;;;;5136097;27;20430;-68
2022/06/13 09:31:13;;;;;;;6.10;3.27;;;;;;;;;;5135174;27;20527;-69
2022/06/13 09:33:44;;;;;;;7.60;3.83;;;;;;;;;;5135125;27;20438;-69
2022/06/13 09:36:15;;;;;;;6.47;3.63;;;;;;;;;;5135588;27;20455;-69
2022/06/13 09:38:46;;;;;;;6.30;3.57;;;;;;;;;;5135760;27;20840;-68
2022/06/13 09:41:19;;;;;;;7.60;3.57;;;;;;;;;;5135041;27;20517;-68
2022/06/13 09:43:55;;;;;;;4.97;2.80;;;;;;;;;;5134955;27;20514;-68
2022/06/13 09:46:29;;;;;;;6.50;3.03;;;;;;;;;;5134968;27;20461;-68
2022/06/13 09:49:02;;;;;;;8.00;2.80;;;;;;;;;;5135664;27;20555;-68
2022/06/13 09:51:36;;;;;;;5.90;2.97;;;;;;;;;;5135318;27;20530;-68
2022/06/13 09:54:09;;;;;;;5.50;3.27;;;;;;;;;;5135540;27;20435;-68
2022/06/13 09:56:40;;;;;;;3.50;2.60;;;;;;;;;;5135120;27;20427;-68
2022/06/13 09:59:15;;;;;;;4.53;2.50;;;;;;;;;;5135245;27;20426;-68
2022/06/13 10:01:45;;;;;;;3.80;2.40;;;;;;;;;;5134671;27;20515;-68
2022/06/13 10:04:15;;;;;;;7.27;2.33;;;;;;;;;;5134678;27;21003;-68
2022/06/13 10:06:47;;;;;;;3.70;2.03;;;;;;;;;;5134513;27;20453;-69
2022/06/13 10:09:23;;;;;;;3.63;2.20;;;;;;;;;;5134944;27;20438;-69
2022/06/13 10:11:53;;;;;;;5.70;2.50;;;;;;;;;;5134520;27;20433;-68
2022/06/13 10:14:30;;;;;;;2.67;2.47;;;;;;;;;;5135058;27;20463;-68
2022/06/13 10:17:03;;;;;;;10.63;2.43;;;;;;;;;;5134689;27;20876;-68
2022/06/13 10:19:35;;;;;;;4.93;3.00;;;;;;;;;;5134378;27;20515;-69
2022/06/13 10:22:06;;;;;;;8.90;2.93;;;;;;;;;;5134538;27;20460;-68
2022/06/13 10:24:37;;;;;;;6.43;2.30;;;;;;;;;;5134766;27;20820;-69
2022/06/13 10:27:08;;;;;;;4.50;2.13;;;;;;;;;;5134626;27;20465;-68
2022/06/13 10:29:43;;;;;;;4.10;2.17;;;;;;;;;;5134347;27;20469;-68
2022/06/13 10:32:18;;;;;;;3.77;3.23;;;;;;;;;;5134362;27;20431;-68
2022/06/13 10:34:54;;;;;;;2.47;2.27;;;;;;;;;;5134009;27;20431;-68
2022/06/13 10:37:23;;;;;;;4.27;2.30;;;;;;;;;;5134536;28;20454;-68
2022/06/13 10:39:53;;;;;;;5.67;2.60;;;;;;;;;;5134107;28;20489;-68
2022/06/13 10:42:22;;;;;;;6.93;2.93;;;;;;;;;;5134460;28;20466;-68
2022/06/13 10:44:49;;;;;;;6.13;2.20;;;;;;;;;;5134312;28;20507;-68
2022/06/13 10:47:20;;;;;;;3.33;2.20;;;;;;;;;;5133844;28;20533;-68
2022/06/13 10:49:51;;;;;;;6.40;2.27;;;;;;;;;;5134630;27;20568;-68
2022/06/13 10:52:21;;;;;;;2.77;2.30;;;;;;;;;;5134460;28;20458;-68
2022/06/13 10:54:52;;;;;;;7.43;2.47;;;;;;;;;;5134450;28;20446;-68
2022/06/13 10:57:22;;;;;;;3.50;2.40;;;;;;;;;;5134512;28;20491;-69
2022/06/13 11:00:05;;;;;;;2.10;1.90;;;;;;;;;;5134055;28;20691;-69
2022/06/13 11:02:32;;;;;;;3.43;2.20;;;;;;;;;;5133879;28;20479;-68
2022/06/13 11:05:08;;;;;;;3.90;1.77;;;;;;;;;;5134569;28;20473;-69
2022/06/13 11:07:37;;;;;;;4.80;2.20;;;;;;;;;;5134101;28;20532;-69
2022/06/13 11:10:04;;;;;;;4.37;2.20;;;;;;;;;;5133867;28;20447;-69
2022/06/13 11:12:34;;;;;;;3.30;1.93;;;;;;;;;;5134152;28;20493;-68
2022/06/13 11:23:20;;;;;;;4.10;1.80;;;;;;;;;;5134240;28;20423;-68
2022/06/13 11:25:55;;;;;;;5.23;1.90;;;;;;;;;;5134493;28;20475;-68
2022/06/13 11:28:27;;;;;;;1.97;1.70;;;;;;;;;;5133983;28;20474;-69
2022/06/13 11:31:03;;;;;;;2.67;2.00;;;;;;;;;;5134535;28;20519;-69
2022/06/13 11:33:32;;;;;;;1.80;1.70;;;;;;;;;;5134075;28;20463;-68
2022/06/13 11:36:01;;;;;;;7.33;1.80;;;;;;;;;;5133906;28;20446;-69
2022/06/13 11:38:30;;;;;;;5.13;1.70;;;;;;;;;;5133921;28;20430;-68
2022/06/13 11:41:00;;;;;;;4.10;2.10;;;;;;;;;;5133622;28;20436;-68
2022/06/13 11:43:35;;;;;;;9.40;2.40;;;;;;;;;;5133866;28;20439;-68
2022/06/13 11:46:04;;;;;;;3.50;2.00;;;;;;;;;;5135669;27;20980;-68
2022/06/13 11:48:31;;;;;;;2.70;1.60;;;;;;;;;;5137619;27;20538;-68
2022/06/13 11:51:00;;;;;;;2.53;1.60;;;;;;;;;;5137529;27;21033;-68
2022/06/13 11:53:36;;;;;;;4.57;1.50;;;;;;;;;;5137144;27;20431;-67
2022/06/13 11:56:05;;;;;;;1.73;1.60;;;;;;;;;;5137601;27;20852;-67
2022/06/13 11:58:37;;;;;;;1.93;1.40;;;;;;;;;;5137215;27;20439;-67
2022/06/13 12:01:13;;;;;;;1.87;1.37;;;;;;;;;;5137780;27;20479;-68
2022/06/13 12:03:43;;;;;;;4.57;1.47;;;;;;;;;;5137262;27;20518;-69
2022/06/13 12:06:11;;;;;;;1.97;1.80;;;;;;;;;;5137166;27;20539;-68
2022/06/13 12:08:39;;;;;;;2.80;1.40;;;;;;;;;;5136739;27;20913;-68
2022/06/13 12:11:07;;;;;;;4.13;1.87;;;;;;;;;;5137269;27;20530;-67
2022/06/13 12:13:39;;;;;;;3.40;1.80;;;;;;;;;;5136937;27;20530;-68
2022/06/13 12:16:10;;;;;;;2.30;1.40;;;;;;;;;;5137768;27;20437;-67
2022/06/13 12:18:41;;;;;;;1.90;1.53;;;;;;;;;;5137035;27;20483;-68
2022/06/13 12:21:11;;;;;;;3.80;1.40;;;;;;;;;;5137099;27;20924;-68
2022/06/13 12:23:42;;;;;;;2.63;2.10;;;;;;;;;;5136796;27;20440;-68
2022/06/13 12:26:13;;;;;;;4.97;1.63;;;;;;;;;;5136553;27;20469;-68
2022/06/13 12:28:47;;;;;;;5.40;1.90;;;;;;;;;;5136892;27;20511;-68
2022/06/13 12:31:17;;;;;;;1.93;1.60;;;;;;;;;;5136542;27;20470;-68
2022/06/13 12:33:50;;;;;;;3.57;1.60;;;;;;;;;;5136990;27;20432;-68
2022/06/13 12:36:30;;;;;;;2.53;1.50;;;;;;;;;;5137273;27;20518;-68
2022/06/13 12:39:09;;;;;;;2.17;1.40;;;;;;;;;;5136757;27;20455;-68
2022/06/13 12:41:41;;;;;;;2.50;1.73;;;;;;;;;;5136871;27;20518;-68
2022/06/13 12:44:14;;;;;;;7.40;2.07;;;;;;;;;;5136540;27;20432;-68
2022/06/13 12:46:47;;;;;;;2.73;1.70;;;;;;;;;;5136283;27;20467;-68
2022/06/13 12:49:22;;;;;;;2.30;1.47;;;;;;;;;;5136209;27;20452;-68
2022/06/13 12:51:55;;;;;;;2.03;1.30;;;;;;;;;;5136882;27;20996;-69
2022/06/13 12:54:38;;;;;;;1.30;1.20;;;;;;;;;;5136132;27;20467;-72
2022/06/13 12:57:09;;;;;;;2.60;1.73;;;;;;;;;;5135348;27;20423;-73
2022/06/13 12:59:42;;;;;;;1.50;1.40;;;;;;;;;;5136472;27;20969;-71
2022/06/13 13:02:20;;;;;;;3.20;1.27;;;;;;;;;;5136229;27;20475;-71
2022/06/13 13:04:54;;;;;;;4.10;1.70;;;;;;;;;;5135855;27;20976;-71
2022/06/13 13:07:26;;;;;;;2.90;1.70;;;;;;;;;;5136131;27;20509;-70
2022/06/13 13:10:16;;;;;;;3.93;1.60;;;;;;;;;;5135702;27;20416;-70
2022/06/13 13:12:54;;;;;;;2.43;1.23;;;;;;;;;;5135139;27;20427;-69
2022/06/13 13:15:27;;;;;;;2.67;1.70;;;;;;;;;;5115143;28;20443;-71
2022/06/13 13:17:57;;;;;;;4.80;1.77;;;;;;;;;;5135199;27;20543;-70
2022/06/13 13:20:29;;;;;;;2.37;1.90;;;;;;;;;;5135184;27;20514;-71
2022/06/13 13:22:59;;;;;;;2.50;1.47;;;;;;;;;;5135052;27;20424;-70
2022/06/13 13:25:31;;;;;;;2.30;1.60;;;;;;;;;;5135290;27;20537;-71
2022/06/13 13:28:04;;;;;;;3.67;1.70;;;;;;;;;;5135641;27;20426;-70
2022/06/13 13:30:34;;;;;;;1.83;1.47;;;;;;;;;;5135528;27;20419;-71
2022/06/13 13:33:13;;;;;;;3.37;1.40;;;;;;;;;;5135034;27;20438;-70
2022/06/13 13:35:43;;;;;;;3.23;1.50;;;;;;;;;;5135100;27;20427;-71
2022/06/13 13:38:15;;;;;;;1.60;1.50;;;;;;;;;;5135305;27;20523;-70
2022/06/13 13:40:45;;;;;;;1.50;1.27;;;;;;;;;;5135451;27;20461;-71
2022/06/13 13:43:18;;;;;;;1.90;1.47;;;;;;;;;;5134825;27;20439;-70
2022/06/13 13:45:49;;;;;;;7.60;1.40;;;;;;;;;;5135192;27;20476;-70
2022/06/13 13:48:19;;;;;;;7.33;1.53;;;;;;;;;;5135138;27;20453;-71
2022/06/13 13:50:49;;;;;;;3.43;1.70;;;;;;;;;;5134727;27;20512;-71
2022/06/13 13:53:18;;;;;;;1.50;1.40;;;;;;;;;;5135000;27;20445;-70
2022/06/13 13:55:49;;;;;;;2.47;1.60;;;;;;;;;;5134974;27;20438;-71
2022/06/13 13:58:19;;;;;;;4.07;1.57;;;;;;;;;;5134962;27;20426;-70
2022/06/13 14:00:50;;;;;;;2.73;1.40;;;;;;;;;;5134642;27;20483;-71
2022/06/13 14:03:24;;;;;;;3.23;1.73;;;;;;;;;;5134950;27;20438;-70
2022/06/13 14:05:54;;;;;;;4.00;1.50;;;;;;;;;;5134620;27;20650;-71
2022/06/13 14:08:23;;;;;;;2.30;1.47;;;;;;;;;;5134866;27;20452;-69
2022/06/13 14:10:53;;;;;;;1.90;1.30;;;;;;;;;;5134779;27;20849;-71
2022/06/13 14:13:25;;;;;;;3.27;1.57;;;;;;;;;;5134603;27;20444;-70
2022/06/13 14:16:16;;;;;;;2.20;1.30;;;;;;;;;;5134814;27;20472;-70
2022/06/13 14:19:02;;;;;;;3.13;1.73;;;;;;;;;;5109111;27;20544;-70
2022/06/13 14:21:56;;;;;;;1.60;1.50;;;;;;;;;;5135135;27;20441;-70
2022/06/13 14:24:26;;;;;;;1.83;1.20;;;;;;;;;;5134272;27;20473;-71
2022/06/13 14:27:18;;;;;;;1.60;1.30;;;;;;;;;;5133943;27;20506;-70
2022/06/13 14:29:47;;;;;;;2.20;1.30;;;;;;;;;;5115231;27;20452;-71
2022/06/13 14:32:16;;;;;;;1.80;1.37;;;;;;;;;;5134699;27;20867;-72
2022/06/13 14:37:57;;;;;;;4.50;1.97;;;;;;;;;;5134494;27;20815;-71
2022/06/13 14:40:26;;;;;;;2.40;1.93;;;;;;;;;;5133809;28;20529;-71
2022/06/13 14:42:55;;;;;;;1.47;1.37;;;;;;;;;;5134142;28;20524;-71
2022/06/13 14:45:26;;;;;;;5.70;1.50;;;;;;;;;;5133777;28;20440;-70
2022/06/13 14:48:01;;;;;;;2.37;1.53;;;;;;;;;;5134445;28;20448;-71
2022/06/13 14:50:43;;;;;;;5.33;1.83;;;;;;;;;;5134460;27;20566;-70
2022/06/13 14:53:29;;;;;;;2.90;1.50;;;;;;;;;;5134166;28;20934;-71
2022/06/13 14:56:21;;;;;;;6.10;3.13;;;;;;;;;;5134397;28;20426;-71
2022/06/13 14:59:01;;;;;;;4.67;1.67;;;;;;;;;;5133194;28;20429;-71
2022/06/13 15:01:30;;;;;;;3.40;1.50;;;;;;;;;;5134686;28;20466;-71
2022/06/13 15:04:17;;;;;;;3.37;1.50;;;;;;;;;;5134216;28;20516;-71
2022/06/13 15:06:49;;;;;;;2.83;1.50;;;;;;;;;;5133647;28;20522;-71
2022/06/13 15:09:22;;;;;;;1.50;1.40;;;;;;;;;;5134029;28;20464;-70
2022/06/13 15:11:50;;;;;;;4.37;1.80;;;;;;;;;;5134176;28;20808;-70
2022/06/13 15:14:20;;;;;;;3.37;1.73;;;;;;;;;;5133834;28;20526;-70
2022/06/13 15:16:49;;;;;;;3.33;1.40;;;;;;;;;;5134307;28;20532;-70